Nearby METAR Reports

 

KAVP - Avoca/Wilkes B., Pennsylvania, USA
Distance from station: NE 13mi, 20km
Updated: Sat, 17-Aug-2019 7:54pm PDT
Clear
Clear
 Wind from calm
Wind: Calm
Temperature: 68°F , 20°C
Dew Point: 66°F , 19°C
Humidity: 94%
Barometer: 30.01 inHg , 1016.3 hPa
Clouds: Clear
Visibility: 9 miles , 14 km
2019/08/18 02:54 KAVP 180254Z 00000KT 9SM CLR 20/19 A3001 RMK AO2 RAB0155E08 SLP153 P0000 60051 T02000194 50006
KMPO - Mt. Pocono, Pennsylvania, USA
Distance from station: ESE 28mi, 45km
Updated: Sat, 17-Aug-2019 7:53pm PDT
Few Clouds
Few Clouds
 Wind from WNW
Wind: WNW 6 mph , 9 km/h
Temperature: 64°F , 18°C
Dew Point: 64°F , 18°C
Humidity: 100%
Barometer: 30.04 inHg , 1017.3 hPa
Clouds: Few Clouds
Visibility: 10 miles , 16 km
Cloud details: Few Clouds 10000 ft
2019/08/18 02:53 KMPO 180253Z AUTO 30005KT 10SM FEW100 18/18 A3004 RMK AO2 LTG DSNT E RAE23 SLP163 P0001 60036 T01830183 50001
 
KABE - Allentown, Pennsylvania, USA
Distance from station: SSE 46mi, 74km
Updated: Sat, 17-Aug-2019 7:51pm PDT
Clear
Clear
 Wind from calm
Wind: Calm
Temperature: 75°F , 24°C
Dew Point: 66°F , 19°C
Humidity: 74%
Barometer: 29.98 inHg , 1015.2 hPa
Clouds: Clear
Visibility: 10 miles , 16 km
2019/08/18 02:51 KABE 180251Z 00000KT 10SM CLR 24/19 A2998 RMK AO2 SLP150 T02440189 50008
KXLL - Allentown Queen, Pennsylvania, USA
Distance from station: SSE 50mi, 81km
Updated: Sat, 17-Aug-2019 7:55pm PDT
Partly Cloudy
Partly Cloudy
 Wind from N
Wind: N 5 mph , 7 km/h
Temperature: 77°F , 25°C
Dew Point: 72°F , 22°C
Humidity: 83%
Barometer: 30.00 inHg , 1015.9 hPa
Clouds: Partly Cloudy
Visibility: 10 miles , 16 km
Cloud details: Partly Cloudy 4400 ft
2019/08/18 02:55 KXLL 180255Z AUTO 36004KT 10SM SCT044 25/22 A3000 RMK AO2 LTG DSNT NE
 
KIPT - Williamsport, Pennsylvania, USA
Distance from station: W 52mi, 84km
Updated: Sat, 17-Aug-2019 7:54pm PDT
Clear
Clear
 Wind from N
Wind: N 5 mph , 7 km/h
Temperature: 68°F , 20°C
Dew Point: 64°F , 18°C
Humidity: 88%
Barometer: 29.98 inHg , 1015.2 hPa
Clouds: Clear
Visibility: 10 miles , 16 km
2019/08/18 02:54 KIPT 180254Z AUTO 01004KT 10SM CLR 20/18 A2998 RMK AO2 SLP150 T02000183 50006
KSEG - Selinsgrove, Pennsylvania, USA
Distance from station: WSW 57mi, 92km
Updated: Sat, 17-Aug-2019 7:53pm PDT
Few Clouds
Few Clouds
 Wind from N
Wind: N 3 mph , 6 km/h
Temperature: 72°F , 22°C
Dew Point: 66°F , 19°C
Humidity: 83%
Barometer: 29.99 inHg , 1015.6 hPa
Clouds: Few Clouds
Visibility: 10 miles , 16 km
Cloud details: Few Clouds 7000 ft
2019/08/18 02:53 KSEG 180253Z AUTO 35003KT 10SM FEW070 22/19 A2999 RMK AO2 SLP150 T02170194 50010
 
KRDG - Reading, Pennsylvania, USA
Distance from station: S 59mi, 95km
Updated: Sat, 17-Aug-2019 7:54pm PDT
Clear
Clear
 Wind from calm
Wind: Calm
Temperature: 75°F , 24°C
Dew Point: 73°F , 23°C
Humidity: 94%
Barometer: 29.96 inHg , 1014.6 hPa
Clouds: Clear
Visibility: 10 miles , 16 km
2019/08/18 02:54 KRDG 180254Z AUTO 00000KT 10SM CLR 24/23 A2996 RMK AO2 SLP147 T02440228 50005
KUKT - Quakertown Arp, Pennsylvania, USA
Distance from station: SSE 61mi, 98km
Updated: Sat, 17-Aug-2019 7:55pm PDT
Clear
Clear
 Wind from calm
Wind: Calm
Temperature: 73°F , 23°C
Dew Point: 73°F , 23°C
Humidity: 100%
Barometer: 30.00 inHg , 1015.9 hPa
Clouds: Clear
Visibility: 10 miles , 16 km
2019/08/18 02:55 KUKT 180255Z AUTO 00000KT 10SM CLR 23/23 A3000 RMK A01
 
K12N - Andover, New Jersey, USA
Distance from station: ESE 63mi, 101km
Updated: Sat, 17-Aug-2019 7:54pm PDT

 Wind from varies
Wind: varies 3 mph , 6 km/h
Temperature: 72°F , 22°C
Dew Point: 70°F , 21°C
Humidity: 94%
Barometer: 30.00 inHg , 1015.9 hPa
2019/08/18 02:54 K12N 180254Z AUTO VRB03KT 22/21 A3000 RMK AO1 SLP151 P0009 60009 T02220211 51010
KMUI - Muir Aaf/Indiant, Pennsylvania, USA
Distance from station: SSW 65mi, 105km
Updated: Sat, 17-Aug-2019 7:56pm PDT
Mostly Cloudy
Mostly Cloudy
 Wind from calm
Wind: Calm
Temperature: 72°F , 22°C
Dew Point: 70°F , 21°C
Humidity: 94%
Barometer: 29.98 inHg , 1015.2 hPa
Clouds: Mostly Cloudy
Visibility: 10 miles , 16 km
Cloud details: Mostly Cloudy 20000 ft
2019/08/18 02:56 KMUI 180256Z AUTO 00000KT 10SM BKN200 22/21 A2998 RMK AO2 SLP151 T02220213 50005
 
KFWN - Sussex, New Jersey, USA
Distance from station: E 66mi, 107km
Updated: Sat, 17-Aug-2019 8:04pm PDT
Light thunderstorm, Rain, Overcast
Light thunderstorm, Rain, Overcast
 Wind from calm
Wind: Calm
Temperature: 73°F , 23°C
Dew Point: 70°F , 21°C
Humidity: 89%
Barometer: 29.99 inHg , 1015.6 hPa
Summary: Light thunderstorm, Rain
Clouds: Overcast
Visibility: 10 miles , 16 km
Cloud details: Partly Cloudy 2900 ft
Mostly Cloudy 7500 ft
Overcast 11000 ft
2019/08/18 03:04 KFWN 180304Z AUTO 00000KT 10SM -TSRA SCT029 BKN075 OVC110 23/21 A2999 RMK AO2 LTG DSNT NE-S TSB04 P0000 T02330206
KMSV - Monticello, New York, USA
Distance from station: ENE 67mi, 108km
Updated: Sat, 17-Aug-2019 7:56pm PDT
Clear
Clear
 Wind from calm
Wind: Calm
Temperature: 66°F , 19°C
Dew Point: 64°F , 18°C
Humidity: 94%
Barometer: 30.03 inHg , 1016.9 hPa
Clouds: Clear
Visibility: 10 miles , 16 km
2019/08/18 02:56 KMSV 180256Z AUTO 00000KT 10SM CLR 19/18 A3003 RMK AO2 LTG DSNT E AND SE SLP161 60000 T01940178 50000
 
KBGM - Binghamton, New York, USA
Distance from station: N 69mi, 111km
Updated: Sat, 17-Aug-2019 7:53pm PDT
Clear
Clear
 Wind from SW
Wind: SW 5 mph , 7 km/h
Temperature: 63°F , 17°C
Dew Point: 63°F , 17°C
Humidity: 100%
Barometer: 30.02 inHg , 1016.6 hPa
Clouds: Clear
Visibility: 10 miles , 16 km
2019/08/18 02:53 KBGM 180253Z 22004KT 10SM CLR 17/17 A3002 RMK AO2 SLP154 T01720167 53001
KPTW - Pottstown, Pennsylvania, USA
Distance from station: SSE 71mi, 114km
Updated: Sat, 17-Aug-2019 7:54pm PDT
Clear
Clear
 Wind from calm
Wind: Calm
Temperature: 75°F , 24°C
Dew Point: 73°F , 23°C
Humidity: 94%
Barometer: 30.00 inHg , 1015.9 hPa
Clouds: Clear
Visibility: 9 miles , 14 km
2019/08/18 02:54 KPTW 180254Z AUTO 00000KT 9SM CLR 24/23 A3000 RMK AO2 SLP153 T02440233 50006
 
KDYL - Doylestown, Pennsylvania, USA
Distance from station: SE 74mi, 119km
Updated: Sat, 17-Aug-2019 7:54pm PDT
Clear
Clear
 Wind from S
Wind: S 3 mph , 6 km/h
Temperature: 77°F , 25°C
Dew Point: 72°F , 22°C
Humidity: 83%
Barometer: 29.98 inHg , 1015.2 hPa
Clouds: Clear
Visibility: 10 miles , 16 km
2019/08/18 02:54 KDYL 180254Z AUTO 17003KT 10SM CLR 25/22 A2998 RMK AO2 SLP146 T02500217 50006
KSMQ - Somerville, New Jersey, USA
Distance from station: ESE 77mi, 124km
Updated: Sat, 17-Aug-2019 7:53pm PDT
Partly Cloudy
Partly Cloudy
 Wind from SSE
Wind: SSE 5 mph , 7 km/h
Temperature: 75°F , 24°C
Dew Point: 73°F , 23°C
Humidity: 94%
Barometer: 29.95 inHg , 1014.2 hPa
Clouds: Partly Cloudy
Visibility: 8 miles , 13 km
Cloud details: Few Clouds 4400 ft
Partly Cloudy 5000 ft
Partly Cloudy 11000 ft
2019/08/18 02:53 KSMQ 180253Z AUTO 16004KT 8SM FEW044 SCT050 SCT110 24/23 A2995 RMK AO2 LTG DSNT N SLP142 T02390228 50007
 
KLNS - Lancaster, Pennsylvania, USA
Distance from station: SSW 79mi, 127km
Updated: Sat, 17-Aug-2019 7:53pm PDT
Clear
Clear
 Wind from calm
Wind: Calm
Temperature: 79°F , 26°C
Dew Point: 68°F , 20°C
Humidity: 70%
Barometer: 29.98 inHg , 1015.2 hPa
Clouds: Clear
Visibility: 10 miles , 16 km
2019/08/18 02:53 KLNS 180253Z 00000KT 10SM CLR 26/20 A2998 RMK AO2 SLP148 T02560200 50005
KELM - Elmira, New York, USA
Distance from station: NW 82mi, 132km
Updated: Sat, 17-Aug-2019 8:02pm PDT
Mist, Clear
Mist, Clear
 Wind from calm
Wind: Calm
Temperature: 63°F , 17°C
Dew Point: 63°F , 17°C
Humidity: 100%
Barometer: 30.00 inHg , 1015.9 hPa
Summary: Mist
Clouds: Clear
Visibility: 2 miles , 3 km
2019/08/18 03:02 KELM 180302Z 00000KT 2SM BR CLR 17/17 A3000 RMK AO2 T01720172
 
KLOM - Philly Wings F, Pennsylvania, USA
Distance from station: SSE 82mi, 132km
Updated: Sat, 17-Aug-2019 7:55pm PDT
Clear
Clear
 Wind from calm
Wind: Calm
Temperature: 75°F , 24°C
Dew Point: 73°F , 23°C
Humidity: 94%
Barometer: 29.99 inHg , 1015.6 hPa
Clouds: Clear
Visibility: 10 miles , 16 km
2019/08/18 02:55 KLOM 180255Z AUTO 00000KT 10SM CLR 24/23 A2999 RMK AO2 T02380230
KMMU - Morristown Muni, New Jersey, USA
Distance from station: ESE 83mi, 134km
Updated: Sat, 17-Aug-2019 7:55pm PDT
Nearby thunderstorm, Partly cloudy
Nearby thunderstorm, Partly cloudy
 Wind from calm
Wind: Calm
Temperature: 75°F , 24°C
Dew Point: 75°F , 24°C
Humidity: 100%
Barometer: 29.98 inHg , 1015.2 hPa
Summary: Nearby Thunderstorm
Clouds: Partly Cloudy
Visibility: 10 miles , 16 km
Cloud details: Partly Cloudy 2400 ft
2019/08/18 02:55 KMMU 180255Z AUTO 00000KT 10SM VCTS SCT024 24/24 A2998 RMK AO2 LTG DSNT NW

Metar display script from Saratoga-Weather.org